Time;durP1;ratioP1;P1;durP2;ratioP2;P2;SDS_P1;SDS_P2;PMS_P1;PMS_P2;Temp;Humidity;BMP_temperature;BMP_pressure;BME280_temperature;BME280_humidity;BME280_pressure;Samples;Min_cycle;Max_cycle;Signal;HPM_P1;HPM_P2
2022/11/20 00:00:06;;;;;;;40.15;31.65;;;;;;;;;;4989848;28;20062;-82
2022/11/20 00:02:35;;;;;;;79.25;46.60;;;;;;;;;;4993461;28;20037;-75
2022/11/20 00:05:01;;;;;;;61.85;41.95;;;;;;;;;;4986698;28;20461;-71
2022/11/20 00:07:27;;;;;;;61.33;42.42;;;;;;;;;;4993601;28;20552;-75
2022/11/20 00:09:53;;;;;;;73.75;47.83;;;;;;;;;;4993571;28;20030;-71
2022/11/20 00:12:19;;;;;;;70.90;48.47;;;;;;;;;;4981796;28;20069;-76
2022/11/20 00:14:45;;;;;;;72.90;52.63;;;;;;;;;;4993512;28;20026;-72
2022/11/20 00:17:11;;;;;;;65.78;47.45;;;;;;;;;;4979999;28;20056;-77
2022/11/20 00:19:37;;;;;;;52.85;39.00;;;;;;;;;;4993093;28;20378;-75
2022/11/20 00:22:03;;;;;;;58.55;43.50;;;;;;;;;;4993272;28;20025;-80
2022/11/20 00:24:29;;;;;;;76.60;54.33;;;;;;;;;;4993699;28;20469;-75
2022/11/20 00:26:55;;;;;;;38.83;31.13;;;;;;;;;;4979595;28;20071;-79
2022/11/20 00:29:21;;;;;;;36.67;28.38;;;;;;;;;;4993651;28;20424;-78
2022/11/20 00:31:47;;;;;;;41.20;32.83;;;;;;;;;;4993246;28;20022;-73
2022/11/20 00:34:13;;;;;;;44.30;34.28;;;;;;;;;;4993358;28;20030;-76
2022/11/20 00:36:40;;;;;;;40.80;32.03;;;;;;;;;;4993068;28;20054;-74
2022/11/20 00:39:06;;;;;;;39.33;30.67;;;;;;;;;;4993299;28;20097;-74
2022/11/20 00:41:32;;;;;;;45.00;34.83;;;;;;;;;;4993052;28;20026;-73
2022/11/20 00:43:58;;;;;;;41.33;30.25;;;;;;;;;;4992935;28;20492;-73
2022/11/20 00:46:25;;;;;;;43.97;32.28;;;;;;;;;;4993363;28;20157;-74
2022/11/20 00:48:52;;;;;;;40.30;31.35;;;;;;;;;;4993043;28;20050;-78
2022/11/20 00:51:19;;;;;;;41.42;31.38;;;;;;;;;;4993452;28;20026;-77
2022/11/20 00:53:46;;;;;;;42.75;32.55;;;;;;;;;;4993071;28;20031;-75
2022/11/20 00:56:13;;;;;;;34.13;27.33;;;;;;;;;;4985183;28;20055;-74
2022/11/20 00:58:40;;;;;;;31.17;25.23;;;;;;;;;;4988489;28;20349;-74
2022/11/20 01:01:11;;;;;;;32.20;25.45;;;;;;;;;;4993040;28;20026;-74
2022/11/20 01:03:41;;;;;;;48.00;32.17;;;;;;;;;;4992777;28;20117;-73
2022/11/20 01:06:10;;;;;;;77.25;54.20;;;;;;;;;;4992814;28;20114;-75
2022/11/20 01:08:36;;;;;;;81.75;50.83;;;;;;;;;;4992736;28;20037;-75
2022/11/20 01:11:07;;;;;;;53.95;38.13;;;;;;;;;;4992573;28;20030;-73
2022/11/20 01:13:39;;;;;;;68.25;46.15;;;;;;;;;;4992983;28;20032;-74
2022/11/20 01:16:15;;;;;;;75.75;50.38;;;;;;;;;;4992635;28;20038;-74
2022/11/20 01:18:43;;;;;;;41.95;31.45;;;;;;;;;;4975354;28;20045;-79
2022/11/20 01:21:13;;;;;;;32.28;25.67;;;;;;;;;;4992701;28;20030;-77
2022/11/20 01:23:40;;;;;;;36.38;27.67;;;;;;;;;;4992533;28;20026;-76
2022/11/20 01:26:08;;;;;;;44.65;31.60;;;;;;;;;;4992658;28;20531;-77
2022/11/20 01:28:34;;;;;;;41.00;29.70;;;;;;;;;;4992637;28;20496;-74
2022/11/20 01:31:01;;;;;;;39.20;29.05;;;;;;;;;;4996459;28;20022;-73
2022/11/20 01:33:27;;;;;;;41.80;30.08;;;;;;;;;;4995993;28;20065;-74
2022/11/20 01:35:53;;;;;;;46.90;32.70;;;;;;;;;;4996487;28;20068;-73
2022/11/20 01:38:22;;;;;;;36.92;28.55;;;;;;;;;;4996808;28;20018;-73
2022/11/20 01:40:55;;;;;;;31.60;24.83;;;;;;;;;;4996296;28;20038;-73
2022/11/20 01:43:21;;;;;;;33.60;24.08;;;;;;;;;;4996610;28;20084;-72
2022/11/20 01:46:26;;;;;;;32.72;24.30;;;;;;;;;;4996669;28;20068;-72
2022/11/20 01:48:59;;;;;;;36.60;27.08;;;;;;;;;;4898049;29;20041;-73
2022/11/20 01:51:30;;;;;;;39.70;28.88;;;;;;;;;;4898578;29;20038;-73
2022/11/20 01:53:57;;;;;;;39.33;28.65;;;;;;;;;;4898410;29;20064;-72
2022/11/20 01:56:23;;;;;;;37.90;28.85;;;;;;;;;;4898477;29;20084;-71
2022/11/20 01:58:52;;;;;;;38.55;27.40;;;;;;;;;;4898514;29;20060;-72
2022/11/20 02:01:19;;;;;;;33.53;26.10;;;;;;;;;;4898587;29;20045;-72
2022/11/20 02:03:45;;;;;;;35.40;27.15;;;;;;;;;;4883122;29;20067;-72
2022/11/20 02:06:17;;;;;;;32.45;22.25;;;;;;;;;;4898255;29;20036;-72
2022/11/20 02:08:43;;;;;;;29.42;21.73;;;;;;;;;;4898268;29;20033;-73
2022/11/20 02:11:10;;;;;;;28.92;22.08;;;;;;;;;;4898322;29;20036;-73
2022/11/20 02:13:45;;;;;;;26.17;20.02;;;;;;;;;;4898449;29;20044;-76
2022/11/20 02:16:13;;;;;;;31.63;22.33;;;;;;;;;;4897887;29;20565;-77
2022/11/20 02:18:40;;;;;;;25.75;18.77;;;;;;;;;;4909122;28;20116;-77
2022/11/20 02:21:07;;;;;;;38.95;27.17;;;;;;;;;;4995907;28;20497;-74
2022/11/20 02:23:38;;;;;;;40.35;27.05;;;;;;;;;;4996046;28;20026;-74
2022/11/20 02:26:06;;;;;;;51.38;33.80;;;;;;;;;;4989560;28;20011;-77
2022/11/20 02:28:32;;;;;;;52.95;36.00;;;;;;;;;;4995350;28;20477;-75
2022/11/20 02:30:58;;;;;;;53.92;36.80;;;;;;;;;;4995636;28;20042;-74
2022/11/20 02:33:25;;;;;;;73.53;50.50;;;;;;;;;;4995651;28;20026;-79
2022/11/20 02:35:51;;;;;;;38.13;28.23;;;;;;;;;;4995590;28;20023;-72
2022/11/20 02:38:17;;;;;;;26.20;19.52;;;;;;;;;;4977648;28;20042;-74
2022/11/20 02:40:43;;;;;;;21.90;18.30;;;;;;;;;;4995394;28;20088;-74
2022/11/20 02:43:09;;;;;;;20.30;16.13;;;;;;;;;;4995676;28;20097;-74
2022/11/20 02:45:35;;;;;;;16.55;14.05;;;;;;;;;;4995622;28;20073;-78
2022/11/20 02:48:01;;;;;;;17.45;14.32;;;;;;;;;;4995034;28;20050;-76
2022/11/20 02:50:27;;;;;;;19.25;14.65;;;;;;;;;;4995248;28;20377;-72
2022/11/20 02:52:53;;;;;;;24.92;18.70;;;;;;;;;;4994941;28;20473;-77
2022/11/20 02:55:19;;;;;;;27.02;21.63;;;;;;;;;;4995271;28;20026;-74
2022/11/20 02:57:45;;;;;;;32.65;21.98;;;;;;;;;;4987520;28;20022;-75
2022/11/20 03:00:12;;;;;;;30.02;21.55;;;;;;;;;;4994933;28;20072;-76
2022/11/20 03:02:38;;;;;;;27.30;20.95;;;;;;;;;;4995119;28;20068;-73
2022/11/20 03:05:04;;;;;;;28.65;22.23;;;;;;;;;;4994942;28;20019;-76
2022/11/20 03:07:30;;;;;;;28.65;22.17;;;;;;;;;;4994640;28;20077;-73
2022/11/20 03:09:56;;;;;;;27.60;21.75;;;;;;;;;;4994838;28;20058;-74
2022/11/20 03:12:22;;;;;;;28.75;20.73;;;;;;;;;;4994876;28;20026;-78
2022/11/20 03:14:48;;;;;;;27.40;18.85;;;;;;;;;;4994885;28;20056;-79
2022/11/20 03:17:14;;;;;;;25.42;18.60;;;;;;;;;;4994486;28;20058;-79
2022/11/20 03:19:40;;;;;;;26.15;18.75;;;;;;;;;;4994640;28;20026;-78
2022/11/20 03:22:06;;;;;;;23.17;16.98;;;;;;;;;;4995225;28;20042;-83
2022/11/20 03:24:32;;;;;;;18.27;14.13;;;;;;;;;;4994545;28;20094;-73
2022/11/20 03:26:59;;;;;;;16.52;12.90;;;;;;;;;;4994312;28;20065;-77
2022/11/20 03:29:25;;;;;;;14.90;12.82;;;;;;;;;;4994660;28;20026;-73
2022/11/20 03:31:51;;;;;;;15.10;12.70;;;;;;;;;;4994170;28;20042;-76
2022/11/20 03:34:17;;;;;;;18.23;14.45;;;;;;;;;;4994623;28;20027;-77
2022/11/20 03:36:43;;;;;;;17.30;14.25;;;;;;;;;;4993625;28;20453;-77
2022/11/20 03:39:10;;;;;;;18.23;14.60;;;;;;;;;;4989970;28;20022;-75
2022/11/20 03:41:37;;;;;;;18.65;13.05;;;;;;;;;;4976953;28;20030;-78
2022/11/20 03:44:05;;;;;;;15.43;12.32;;;;;;;;;;4994493;28;20030;-72
2022/11/20 03:46:31;;;;;;;15.18;11.73;;;;;;;;;;4994326;28;20061;-77
2022/11/20 03:48:58;;;;;;;13.57;11.45;;;;;;;;;;4994020;28;20117;-78
2022/11/20 03:51:26;;;;;;;13.90;11.80;;;;;;;;;;4994143;28;20053;-78
2022/11/20 03:53:52;;;;;;;14.35;10.82;;;;;;;;;;4992987;28;20400;-76
2022/11/20 03:56:20;;;;;;;17.35;12.90;;;;;;;;;;4986628;28;20034;-75
2022/11/20 03:58:47;;;;;;;14.70;11.25;;;;;;;;;;4990332;28;20030;-76
2022/11/20 04:01:17;;;;;;;13.30;9.70;;;;;;;;;;4993813;28;20029;-73
2022/11/20 04:03:44;;;;;;;14.02;11.02;;;;;;;;;;4993722;28;20157;-78
2022/11/20 04:06:14;;;;;;;15.75;12.05;;;;;;;;;;4993791;28;20030;-76
2022/11/20 04:08:40;;;;;;;17.48;13.35;;;;;;;;;;4993676;28;20036;-74
2022/11/20 04:11:13;;;;;;;18.67;13.45;;;;;;;;;;4993936;28;20049;-73
2022/11/20 04:13:40;;;;;;;17.83;13.02;;;;;;;;;;4976397;28;20468;-76
2022/11/20 04:16:07;;;;;;;18.60;13.77;;;;;;;;;;4993118;28;20050;-74
2022/11/20 04:18:33;;;;;;;17.27;13.20;;;;;;;;;;4993634;28;20101;-72
2022/11/20 04:20:59;;;;;;;20.35;13.82;;;;;;;;;;4993280;28;20018;-71
2022/11/20 04:23:26;;;;;;;18.08;12.63;;;;;;;;;;4993371;28;20081;-73
2022/11/20 04:25:52;;;;;;;19.83;13.52;;;;;;;;;;4989576;28;20172;-74
2022/11/20 04:28:18;;;;;;;22.02;14.70;;;;;;;;;;4990750;28;20037;-73
2022/11/20 04:30:44;;;;;;;25.92;14.40;;;;;;;;;;4993225;28;20030;-72
2022/11/20 04:33:10;;;;;;;23.55;13.10;;;;;;;;;;4993148;28;20022;-73
2022/11/20 04:35:36;;;;;;;11.90;9.23;;;;;;;;;;4993405;28;20104;-71
2022/11/20 04:38:03;;;;;;;11.90;9.75;;;;;;;;;;4993086;28;20102;-74
2022/11/20 04:40:29;;;;;;;13.88;10.77;;;;;;;;;;4993143;28;20019;-78
2022/11/20 04:42:55;;;;;;;11.13;9.75;;;;;;;;;;4993702;28;20041;-73
2022/11/20 04:45:22;;;;;;;11.63;9.43;;;;;;;;;;4993370;28;20035;-76
2022/11/20 04:47:48;;;;;;;11.05;9.10;;;;;;;;;;4993496;28;20468;-73
2022/11/20 04:50:14;;;;;;;10.20;8.75;;;;;;;;;;4993415;28;20035;-81
2022/11/20 04:52:40;;;;;;;11.35;9.23;;;;;;;;;;4992959;28;20507;-82
2022/11/20 04:55:07;;;;;;;11.45;9.80;;;;;;;;;;4993172;28;20104;-73
2022/11/20 04:57:33;;;;;;;11.88;9.60;;;;;;;;;;4981748;28;20033;-73
2022/11/20 04:59:59;;;;;;;10.43;8.82;;;;;;;;;;4975473;28;20474;-74
2022/11/20 05:02:25;;;;;;;10.63;8.68;;;;;;;;;;4993334;28;20060;-80
2022/11/20 05:04:51;;;;;;;11.13;8.40;;;;;;;;;;4992620;28;20030;-77
2022/11/20 05:07:17;;;;;;;9.65;8.13;;;;;;;;;;4993593;28;20042;-77
2022/11/20 05:09:43;;;;;;;11.07;7.63;;;;;;;;;;4993652;28;20384;-82
2022/11/20 05:12:09;;;;;;;9.88;7.82;;;;;;;;;;4993575;28;20295;-73
2022/11/20 05:14:36;;;;;;;10.00;7.88;;;;;;;;;;4993807;28;20484;-73
2022/11/20 05:17:02;;;;;;;8.93;7.18;;;;;;;;;;4992720;28;20101;-79
2022/11/20 05:19:28;;;;;;;9.55;8.02;;;;;;;;;;4975454;28;20022;-78
2022/11/20 05:21:54;;;;;;;9.15;7.53;;;;;;;;;;4992720;28;20029;-79
2022/11/20 05:24:20;;;;;;;10.10;8.18;;;;;;;;;;4992704;28;20022;-79
2022/11/20 05:26:46;;;;;;;9.30;8.13;;;;;;;;;;4986183;28;20065;-78
2022/11/20 05:29:12;;;;;;;7.82;6.97;;;;;;;;;;4992825;28;20034;-80
2022/11/20 05:31:39;;;;;;;11.05;7.15;;;;;;;;;;4992974;28;20030;-80
2022/11/20 05:34:05;;;;;;;11.65;8.20;;;;;;;;;;4992780;28;20037;-75
2022/11/20 05:36:32;;;;;;;9.90;8.23;;;;;;;;;;4992613;28;20022;-72
2022/11/20 05:38:58;;;;;;;11.73;9.30;;;;;;;;;;4992856;28;20596;-73
2022/11/20 05:41:24;;;;;;;11.38;9.80;;;;;;;;;;4993067;28;20528;-73
2022/11/20 05:43:50;;;;;;;12.82;10.23;;;;;;;;;;4992394;28;20023;-74
2022/11/20 05:46:18;;;;;;;13.18;9.70;;;;;;;;;;4992398;28;20032;-76
2022/11/20 05:48:44;;;;;;;13.07;9.05;;;;;;;;;;4992750;28;20385;-75
2022/11/20 05:51:11;;;;;;;10.48;8.05;;;;;;;;;;4993184;28;20077;-79
2022/11/20 05:53:37;;;;;;;10.77;7.80;;;;;;;;;;4992663;28;20044;-73
2022/11/20 05:56:05;;;;;;;12.45;9.43;;;;;;;;;;4988177;28;20394;-73
2022/11/20 05:58:31;;;;;;;11.18;9.57;;;;;;;;;;4987043;28;20018;-74
2022/11/20 06:01:06;;;;;;;13.63;10.30;;;;;;;;;;4992650;28;20022;-74
2022/11/20 06:03:32;;;;;;;14.43;11.85;;;;;;;;;;4992852;28;20041;-72
2022/11/20 06:06:02;;;;;;;15.80;12.90;;;;;;;;;;4992723;28;20026;-73
2022/11/20 06:08:28;;;;;;;15.10;10.65;;;;;;;;;;4992711;28;20069;-77
2022/11/20 06:10:54;;;;;;;13.18;10.48;;;;;;;;;;4992395;28;20024;-80
2022/11/20 06:13:20;;;;;;;14.52;13.20;;;;;;;;;;4992692;28;20029;-78
2022/11/20 06:15:53;;;;;;;12.88;10.55;;;;;;;;;;4992378;28;20104;-78
2022/11/20 06:18:19;;;;;;;15.93;11.90;;;;;;;;;;4978524;28;20519;-74
2022/11/20 06:20:46;;;;;;;15.00;11.70;;;;;;;;;;4995598;28;20523;-78
2022/11/20 06:23:12;;;;;;;11.90;9.98;;;;;;;;;;4995648;28;20026;-74
2022/11/20 06:25:42;;;;;;;11.18;9.25;;;;;;;;;;4993998;28;20045;-76
2022/11/20 06:28:09;;;;;;;11.05;9.85;;;;;;;;;;4991782;28;20100;-74
2022/11/20 06:30:35;;;;;;;13.00;9.98;;;;;;;;;;4995776;28;20085;-80
2022/11/20 06:33:01;;;;;;;11.48;10.15;;;;;;;;;;4995535;28;20030;-72
2022/11/20 06:35:27;;;;;;;12.02;9.27;;;;;;;;;;4995566;28;20069;-73
2022/11/20 06:37:53;;;;;;;11.82;9.52;;;;;;;;;;4995563;28;20030;-72
2022/11/20 06:40:19;;;;;;;13.07;10.45;;;;;;;;;;4995379;28;20026;-72
2022/11/20 06:42:46;;;;;;;12.65;10.88;;;;;;;;;;4995190;28;20026;-72
2022/11/20 06:45:12;;;;;;;16.33;13.40;;;;;;;;;;4977647;28;20038;-72
2022/11/20 06:47:38;;;;;;;20.35;15.90;;;;;;;;;;4995141;28;20113;-72
2022/11/20 06:50:04;;;;;;;17.38;13.60;;;;;;;;;;4995576;28;20057;-73
2022/11/20 06:52:30;;;;;;;18.67;15.38;;;;;;;;;;4995167;28;20034;-72
2022/11/20 06:54:56;;;;;;;22.08;17.83;;;;;;;;;;4994923;28;20054;-72
2022/11/20 06:57:22;;;;;;;22.65;18.25;;;;;;;;;;4984164;28;20053;-73
2022/11/20 06:59:48;;;;;;;20.30;16.73;;;;;;;;;;4994842;28;20030;-73
2022/11/20 07:02:14;;;;;;;19.65;16.08;;;;;;;;;;4994888;28;20532;-72
2022/11/20 07:04:40;;;;;;;18.13;15.63;;;;;;;;;;4994993;28;20385;-71
2022/11/20 07:07:06;;;;;;;13.10;11.57;;;;;;;;;;4994715;28;20073;-72
2022/11/20 07:09:33;;;;;;;13.02;10.70;;;;;;;;;;4994728;28;20018;-73
2022/11/20 07:12:00;;;;;;;11.73;10.07;;;;;;;;;;4994787;28;20117;-71
2022/11/20 07:14:26;;;;;;;10.98;8.30;;;;;;;;;;4994838;28;20030;-73
2022/11/20 07:16:52;;;;;;;10.73;8.35;;;;;;;;;;4994621;28;20580;-75
2022/11/20 07:19:18;;;;;;;13.73;10.60;;;;;;;;;;4995136;28;20145;-76
2022/11/20 07:21:44;;;;;;;12.65;9.50;;;;;;;;;;4994963;28;20022;-75
2022/11/20 07:24:10;;;;;;;18.27;11.88;;;;;;;;;;4994886;28;20026;-72
2022/11/20 07:26:36;;;;;;;15.18;11.80;;;;;;;;;;4988775;28;20026;-73
2022/11/20 07:29:03;;;;;;;14.20;11.40;;;;;;;;;;4994708;28;20033;-72
2022/11/20 07:31:29;;;;;;;38.17;28.02;;;;;;;;;;4994863;28;20441;-74
2022/11/20 07:33:55;;;;;;;34.22;23.50;;;;;;;;;;4994797;28;20018;-72
2022/11/20 07:36:21;;;;;;;21.35;16.05;;;;;;;;;;4994747;28;20097;-74
2022/11/20 07:38:47;;;;;;;24.70;18.75;;;;;;;;;;4994473;28;20085;-72
2022/11/20 07:41:13;;;;;;;26.85;21.77;;;;;;;;;;4994516;28;20037;-75
2022/11/20 07:43:39;;;;;;;26.50;20.88;;;;;;;;;;4994380;28;20101;-72
2022/11/20 07:46:05;;;;;;;25.00;20.33;;;;;;;;;;4993372;28;20077;-73
2022/11/20 07:48:32;;;;;;;25.10;19.63;;;;;;;;;;4994734;28;20050;-76
2022/11/20 07:50:58;;;;;;;17.17;14.45;;;;;;;;;;4994535;28;20034;-75
2022/11/20 07:53:24;;;;;;;20.70;16.20;;;;;;;;;;4994625;28;20034;-72
2022/11/20 07:55:52;;;;;;;23.35;17.92;;;;;;;;;;4993474;28;20030;-74
2022/11/20 07:58:19;;;;;;;28.27;20.15;;;;;;;;;;4994339;28;20058;-74
2022/11/20 08:00:45;;;;;;;23.75;18.30;;;;;;;;;;4993998;28;20374;-74
2022/11/20 08:03:11;;;;;;;27.88;21.45;;;;;;;;;;4994182;28;20019;-73
2022/11/20 08:05:37;;;;;;;21.25;16.98;;;;;;;;;;4976249;28;20041;-74
2022/11/20 08:08:03;;;;;;;22.52;18.33;;;;;;;;;;4993795;28;20027;-76
2022/11/20 08:10:29;;;;;;;28.73;21.85;;;;;;;;;;4993690;28;20025;-74
2022/11/20 08:15:40;;;;;;;15.98;11.70;;;;;;;;;;4993761;28;20104;-75
2022/11/20 08:18:08;;;;;;;15.98;11.77;;;;;;;;;;4993650;28;20034;-74
2022/11/20 08:20:35;;;;;;;15.82;13.25;;;;;;;;;;4993669;28;20061;-75
2022/11/20 08:23:02;;;;;;;17.90;14.02;;;;;;;;;;4993395;28;20019;-75
2022/11/20 08:25:29;;;;;;;20.80;13.38;;;;;;;;;;4993298;28;20187;-79
2022/11/20 08:27:57;;;;;;;18.77;14.23;;;;;;;;;;4987401;28;20046;-75
2022/11/20 08:30:23;;;;;;;20.67;14.65;;;;;;;;;;4993213;28;20053;-78
2022/11/20 08:32:49;;;;;;;17.13;12.80;;;;;;;;;;4993272;28;20030;-73
2022/11/20 08:35:15;;;;;;;16.23;12.05;;;;;;;;;;4993146;28;20026;-78
2022/11/20 08:37:41;;;;;;;13.93;10.57;;;;;;;;;;4993591;28;20030;-86
2022/11/20 08:40:09;;;;;;;36.08;20.17;;;;;;;;;;4992759;28;20022;-82
2022/11/20 08:42:35;;;;;;;18.70;13.43;;;;;;;;;;4992991;28;20031;-79
2022/11/20 08:45:01;;;;;;;24.48;18.73;;;;;;;;;;4993222;28;20528;-82
2022/11/20 08:47:27;;;;;;;25.42;17.63;;;;;;;;;;4992181;28;20046;-73
2022/11/20 08:49:53;;;;;;;26.60;17.88;;;;;;;;;;4991470;28;20049;-74
2022/11/20 08:52:19;;;;;;;51.97;29.77;;;;;;;;;;4992429;28;20034;-73
2022/11/20 08:54:46;;;;;;;48.90;27.63;;;;;;;;;;4992839;28;20022;-72
2022/11/20 08:57:12;;;;;;;18.30;12.63;;;;;;;;;;4992480;28;20026;-72
2022/11/20 08:59:39;;;;;;;17.83;13.10;;;;;;;;;;4993237;28;20408;-73
2022/11/20 09:02:05;;;;;;;16.42;11.30;;;;;;;;;;4993560;28;20030;-72
2022/11/20 09:04:31;;;;;;;22.27;15.30;;;;;;;;;;4993303;28;20018;-73
2022/11/20 09:06:57;;;;;;;19.58;13.93;;;;;;;;;;4991708;28;20042;-72
2022/11/20 09:09:23;;;;;;;23.30;15.38;;;;;;;;;;4993092;28;20023;-71
2022/11/20 09:11:50;;;;;;;15.80;12.48;;;;;;;;;;4989611;28;20026;-75
2022/11/20 09:14:16;;;;;;;20.00;14.60;;;;;;;;;;4989769;28;20023;-71
2022/11/20 09:16:42;;;;;;;26.48;16.58;;;;;;;;;;4992800;28;20058;-73
2022/11/20 09:19:11;;;;;;;22.60;16.63;;;;;;;;;;4991120;28;20054;-75
2022/11/20 09:21:37;;;;;;;21.55;16.67;;;;;;;;;;4972654;28;20022;-77
2022/11/20 09:24:04;;;;;;;20.98;14.77;;;;;;;;;;4991648;28;20022;-77
2022/11/20 09:26:30;;;;;;;18.23;13.50;;;;;;;;;;4991856;28;20076;-77
2022/11/20 09:28:56;;;;;;;18.10;13.55;;;;;;;;;;4992250;28;20509;-75
2022/11/20 09:31:24;;;;;;;23.35;17.05;;;;;;;;;;4992687;28;20412;-72
2022/11/20 09:33:50;;;;;;;28.50;20.15;;;;;;;;;;4992510;28;20141;-79
2022/11/20 09:36:18;;;;;;;23.80;19.50;;;;;;;;;;4988892;28;20030;-76
2022/11/20 09:38:45;;;;;;;28.10;21.85;;;;;;;;;;4982737;28;20027;-76
2022/11/20 09:41:21;;;;;;;30.77;24.70;;;;;;;;;;4992474;28;20528;-76
2022/11/20 09:43:53;;;;;;;29.02;22.23;;;;;;;;;;4992535;28;20379;-76
2022/11/20 09:46:31;;;;;;;29.42;22.33;;;;;;;;;;4989512;28;20113;-74
2022/11/20 09:49:16;;;;;;;24.27;17.70;;;;;;;;;;4974747;28;20066;-75
2022/11/20 09:51:45;;;;;;;18.73;15.82;;;;;;;;;;4993804;28;20041;-76
2022/11/20 09:54:19;;;;;;;19.73;14.68;;;;;;;;;;4996640;28;20022;-76
2022/11/20 09:56:50;;;;;;;25.25;19.30;;;;;;;;;;4992445;28;20097;-76
2022/11/20 09:59:24;;;;;;;29.77;21.40;;;;;;;;;;4995968;28;20112;-75
2022/11/20 10:01:50;;;;;;;26.95;21.63;;;;;;;;;;4996013;28;20023;-74
2022/11/20 10:04:18;;;;;;;25.23;20.00;;;;;;;;;;4996080;28;20469;-75
2022/11/20 10:07:05;;;;;;;30.30;21.80;;;;;;;;;;4995624;28;20041;-78
2022/11/20 10:09:43;;;;;;;30.08;22.00;;;;;;;;;;4996151;28;20453;-77
2022/11/20 10:12:18;;;;;;;30.65;23.60;;;;;;;;;;4995918;28;20098;-75
2022/11/20 10:15:13;;;;;;;24.38;19.50;;;;;;;;;;4995899;28;20026;-74
2022/11/20 10:17:58;;;;;;;30.40;21.88;;;;;;;;;;4898209;29;20053;-78
2022/11/20 10:20:24;;;;;;;32.38;23.05;;;;;;;;;;4898179;29;20081;-72
2022/11/20 10:23:08;;;;;;;31.23;24.08;;;;;;;;;;4898038;29;20048;-78
2022/11/20 10:25:40;;;;;;;20.60;16.08;;;;;;;;;;4897684;29;20032;-75
2022/11/20 10:28:18;;;;;;;27.20;19.77;;;;;;;;;;4897837;29;20080;-74
2022/11/20 10:30:46;;;;;;;21.67;16.92;;;;;;;;;;4897897;29;20036;-76
2022/11/20 10:33:12;;;;;;;23.23;18.25;;;;;;;;;;4897433;29;20033;-76
2022/11/20 10:35:43;;;;;;;23.88;18.00;;;;;;;;;;4897760;29;20037;-80
2022/11/20 10:38:29;;;;;;;25.10;19.45;;;;;;;;;;4881680;29;20033;-74
2022/11/20 10:43:43;;;;;;;27.38;18.15;;;;;;;;;;4902103;29;20443;-82
2022/11/20 10:46:13;;;;;;;23.20;17.27;;;;;;;;;;4906196;29;20567;-73
2022/11/20 10:48:39;;;;;;;22.35;17.70;;;;;;;;;;4896784;29;20515;-75
2022/11/20 10:51:06;;;;;;;26.63;19.67;;;;;;;;;;4897331;29;20025;-74
2022/11/20 10:53:38;;;;;;;25.67;18.83;;;;;;;;;;4925874;28;20151;-74
2022/11/20 10:56:08;;;;;;;25.95;19.73;;;;;;;;;;4990981;28;20138;-75
2022/11/20 10:58:43;;;;;;;19.55;14.43;;;;;;;;;;4989694;28;20030;-75
2022/11/20 11:01:22;;;;;;;21.25;14.68;;;;;;;;;;4995053;28;20072;-74
2022/11/20 11:03:49;;;;;;;25.88;18.15;;;;;;;;;;4994214;28;20105;-75
2022/11/20 11:06:15;;;;;;;22.13;17.17;;;;;;;;;;4994907;28;20027;-78
2022/11/20 11:08:42;;;;;;;24.77;17.33;;;;;;;;;;4995056;28;20038;-74
2022/11/20 11:11:15;;;;;;;29.20;20.42;;;;;;;;;;4995187;28;20113;-75
2022/11/20 11:13:41;;;;;;;24.35;17.63;;;;;;;;;;4994711;28;20026;-75
2022/11/20 11:16:20;;;;;;;24.77;18.70;;;;;;;;;;4994052;28;20054;-74
2022/11/20 11:18:46;;;;;;;25.00;19.13;;;;;;;;;;4994717;28;20031;-77
2022/11/20 11:21:12;;;;;;;29.15;20.63;;;;;;;;;;4994517;28;20026;-77
2022/11/20 11:23:42;;;;;;;29.27;20.58;;;;;;;;;;4994534;28;20049;-78
2022/11/20 11:26:19;;;;;;;27.02;17.23;;;;;;;;;;4990192;28;20026;-73
2022/11/20 11:28:58;;;;;;;24.17;16.02;;;;;;;;;;4982217;28;20034;-78
2022/11/20 11:31:26;;;;;;;22.17;16.83;;;;;;;;;;4994690;28;20054;-71
2022/11/20 11:33:52;;;;;;;29.17;20.98;;;;;;;;;;4994711;28;20018;-72
2022/11/20 11:36:20;;;;;;;32.60;25.42;;;;;;;;;;4994437;28;20408;-73
2022/11/20 11:38:49;;;;;;;21.77;16.95;;;;;;;;;;4994157;28;20065;-75
2022/11/20 11:41:26;;;;;;;20.70;15.50;;;;;;;;;;4989868;28;20101;-79
2022/11/20 11:46:40;;;;;;;22.92;17.30;;;;;;;;;;4994373;28;20045;-76
2022/11/20 11:49:09;;;;;;;25.30;17.70;;;;;;;;;;4994436;28;20034;-76
2022/11/20 11:51:47;;;;;;;30.17;22.02;;;;;;;;;;4994247;28;20022;-74
2022/11/20 11:54:23;;;;;;;30.88;23.38;;;;;;;;;;4994222;28;20065;-76
2022/11/20 11:56:50;;;;;;;32.10;23.25;;;;;;;;;;4984876;28;20022;-74
2022/11/20 11:59:22;;;;;;;23.10;17.98;;;;;;;;;;4994076;28;20482;-79
2022/11/20 12:01:51;;;;;;;28.38;22.10;;;;;;;;;;4993954;28;20389;-74
2022/11/20 12:04:36;;;;;;;35.15;24.40;;;;;;;;;;4993801;28;20030;-78
2022/11/20 12:07:08;;;;;;;32.67;21.58;;;;;;;;;;4993592;28;20489;-79
2022/11/20 12:09:40;;;;;;;27.58;20.55;;;;;;;;;;4993796;28;20471;-75
2022/11/20 12:12:19;;;;;;;18.20;14.30;;;;;;;;;;4993917;28;20050;-82
2022/11/20 12:14:47;;;;;;;39.35;29.77;;;;;;;;;;4993188;28;20026;-78
2022/11/20 12:17:15;;;;;;;27.85;22.55;;;;;;;;;;4992673;28;20058;-78
2022/11/20 12:19:41;;;;;;;31.63;28.38;;;;;;;;;;4993502;28;20022;-79
2022/11/20 12:22:20;;;;;;;22.35;19.95;;;;;;;;;;4993396;28;20477;-78
2022/11/20 12:25:12;;;;;;;18.00;15.48;;;;;;;;;;4993402;28;20113;-79
2022/11/20 12:27:53;;;;;;;18.00;14.88;;;;;;;;;;4984494;28;20050;-79
2022/11/20 12:30:20;;;;;;;26.08;21.50;;;;;;;;;;4980206;28;20022;-77
2022/11/20 12:32:49;;;;;;;22.08;17.08;;;;;;;;;;4991384;28;21504;-80
2022/11/20 12:35:29;;;;;;;35.50;25.75;;;;;;;;;;4983608;28;20033;-77
2022/11/20 12:38:04;;;;;;;103.43;74.68;;;;;;;;;;4991370;28;20061;-79
2022/11/20 12:40:39;;;;;;;52.60;40.42;;;;;;;;;;4993181;28;20030;-76
2022/11/20 12:46:09;;;;;;;37.25;27.63;;;;;;;;;;4988877;28;20093;-78
2022/11/20 12:48:54;;;;;;;32.38;23.20;;;;;;;;;;4983965;28;20057;-74
2022/11/20 12:51:23;;;;;;;50.83;30.90;;;;;;;;;;4993182;28;20034;-76
2022/11/20 12:54:01;;;;;;;77.05;53.75;;;;;;;;;;4989142;28;20173;-73
2022/11/20 12:56:48;;;;;;;41.45;29.83;;;;;;;;;;4992179;28;20120;-74
2022/11/20 12:59:16;;;;;;;31.63;23.15;;;;;;;;;;4914329;29;20037;-76
2022/11/20 13:01:53;;;;;;;33.90;22.30;;;;;;;;;;4913795;29;20114;-76
2022/11/20 13:04:42;;;;;;;27.13;19.05;;;;;;;;;;4913818;29;20036;-77
2022/11/20 13:07:10;;;;;;;30.67;19.38;;;;;;;;;;4857649;29;20136;-78
2022/11/20 13:09:40;;;;;;;31.67;16.90;;;;;;;;;;4857960;29;20512;-78
2022/11/20 13:12:06;;;;;;;31.48;17.02;;;;;;;;;;4857588;29;20114;-77
2022/11/20 13:14:32;;;;;;;26.15;15.93;;;;;;;;;;4857606;29;20037;-78
2022/11/20 13:17:05;;;;;;;37.53;18.65;;;;;;;;;;4857188;29;20065;-78
2022/11/20 13:19:31;;;;;;;27.63;19.33;;;;;;;;;;4857732;29;20052;-78
2022/11/20 13:21:57;;;;;;;30.98;23.23;;;;;;;;;;4857666;29;20362;-77
2022/11/20 13:24:23;;;;;;;43.45;29.98;;;;;;;;;;4845514;29;20042;-76
2022/11/20 13:27:08;;;;;;;80.40;61.75;;;;;;;;;;4852281;29;20033;-77
2022/11/20 13:29:35;;;;;;;27.30;23.42;;;;;;;;;;4849470;29;20199;-76
2022/11/20 13:32:18;;;;;;;37.92;24.67;;;;;;;;;;4842347;29;20501;-82
2022/11/20 13:34:57;;;;;;;25.50;20.23;;;;;;;;;;4843259;29;20437;-77
2022/11/20 13:37:29;;;;;;;28.00;19.65;;;;;;;;;;4905933;29;20059;-77
2022/11/20 13:40:05;;;;;;;28.33;20.70;;;;;;;;;;4903019;29;20562;-84
2022/11/20 13:42:31;;;;;;;26.88;24.10;;;;;;;;;;4898335;29;20065;-77
2022/11/20 13:45:01;;;;;;;25.58;20.05;;;;;;;;;;4964721;28;20081;-80
2022/11/20 13:47:28;;;;;;;31.08;19.23;;;;;;;;;;4976364;28;20543;-80
2022/11/20 13:49:55;;;;;;;23.83;17.17;;;;;;;;;;4972415;28;20034;-79
2022/11/20 13:52:40;;;;;;;24.20;16.75;;;;;;;;;;4966951;28;20031;-79
2022/11/20 13:55:25;;;;;;;18.23;14.38;;;;;;;;;;4977106;28;20081;-76
2022/11/20 13:58:23;;;;;;;21.67;15.75;;;;;;;;;;4968474;28;20030;-73
2022/11/20 14:00:57;;;;;;;32.53;21.25;;;;;;;;;;4900138;29;20426;-73
2022/11/20 14:03:24;;;;;;;27.15;19.00;;;;;;;;;;4908212;29;20032;-69
2022/11/20 14:05:55;;;;;;;20.70;17.25;;;;;;;;;;4897743;29;20041;-79
2022/11/20 14:08:27;;;;;;;32.92;23.60;;;;;;;;;;4892762;29;20495;-76
2022/11/20 14:11:03;;;;;;;32.65;23.90;;;;;;;;;;4892206;29;20028;-76
2022/11/20 14:13:29;;;;;;;33.80;24.75;;;;;;;;;;4892288;29;20495;-76
2022/11/20 14:15:58;;;;;;;28.83;20.35;;;;;;;;;;4897424;29;20470;-75
2022/11/20 14:18:26;;;;;;;30.83;21.98;;;;;;;;;;4897983;29;20528;-75
2022/11/20 14:20:52;;;;;;;63.42;41.47;;;;;;;;;;4896413;29;20051;-73
2022/11/20 14:23:27;;;;;;;39.53;25.98;;;;;;;;;;4892111;29;20036;-76
2022/11/20 14:25:54;;;;;;;39.55;24.08;;;;;;;;;;4897695;29;20032;-76
2022/11/20 14:28:26;;;;;;;33.83;24.33;;;;;;;;;;4897425;29;20072;-76
2022/11/20 14:30:52;;;;;;;41.47;29.13;;;;;;;;;;4897757;29;20043;-75
2022/11/20 14:33:19;;;;;;;34.80;26.77;;;;;;;;;;4896032;29;20037;-75
2022/11/20 14:35:50;;;;;;;48.53;34.45;;;;;;;;;;4910346;28;20126;-76
2022/11/20 14:38:17;;;;;;;44.28;31.75;;;;;;;;;;4974498;28;20041;-75